Time;durP1;ratioP1;P1;durP2;ratioP2;P2;SDS_P1;SDS_P2;PMS_P1;PMS_P2;Temp;Humidity;BMP_temperature;BMP_pressure;BME280_temperature;BME280_humidity;BME280_pressure;Samples;Min_cycle;Max_cycle;Signal;HPM_P1;HPM_P2
2023/10/18 00:01:02;;;;;;;0.20;0.20;;;6.40;99.90;;;;;;5042083;28;20535;-71
2023/10/18 00:03:36;;;;;;;0.10;0.10;;;6.40;99.90;;;;;;5038795;28;20041;-71
2023/10/18 00:06:13;;;;;;;0.20;0.20;;;6.30;99.90;;;;;;5052434;28;20090;-71
2023/10/18 00:08:39;;;;;;;0.20;0.20;;;6.30;99.90;;;;;;5044089;28;20043;-71
2023/10/18 00:11:05;;;;;;;0.20;0.20;;;6.30;99.90;;;;;;5048633;28;20090;-71
2023/10/18 00:13:31;;;;;;;0.10;0.10;;;7.20;99.90;;;;;;5053955;28;20040;-71
2023/10/18 00:16:01;;;;;;;0.20;0.20;;;6.30;99.90;;;;;;5052623;28;20048;-71
2023/10/18 00:18:27;;;;;;;0.10;0.10;;;6.30;99.90;;;;;;5052058;28;20037;-71
2023/10/18 00:21:09;;;;;;;0.20;0.20;;;6.30;99.90;;;;;;5048077;28;20182;-71
2023/10/18 00:23:34;;;;;;;0.20;0.20;;;6.30;99.90;;;;;;5038312;28;20135;-71
2023/10/18 00:26:08;;;;;;;0.20;0.20;;;6.30;99.90;;;;;;5034330;28;20479;-71
2023/10/18 00:28:37;;;;;;;0.20;0.20;;;6.20;99.90;;;;;;5039827;28;20500;-71
2023/10/18 00:31:20;;;;;;;0.20;0.20;;;6.20;99.90;;;;;;5044729;28;20065;-71
2023/10/18 00:33:46;;;;;;;0.20;0.20;;;6.20;99.90;;;;;;5047300;28;20044;-71
2023/10/18 00:36:16;;;;;;;0.10;0.10;;;6.20;99.90;;;;;;5049373;28;20045;-71
2023/10/18 00:38:42;;;;;;;0.10;0.10;;;6.20;99.90;;;;;;5043850;28;20100;-71
2023/10/18 00:41:22;;;;;;;0.20;0.20;;;6.20;99.90;;;;;;5039057;28;20412;-71
2023/10/18 00:43:52;;;;;;;0.20;0.20;;;6.20;99.90;;;;;;5043185;28;20052;-71
2023/10/18 00:46:17;;;;;;;0.20;0.20;;;6.20;99.90;;;;;;5048011;28;20120;-71
2023/10/18 00:48:44;;;;;;;0.20;0.20;;;6.20;99.90;;;;;;5041533;28;20115;-71
2023/10/18 00:51:13;;;;;;;0.20;0.20;;;6.20;99.90;;;;;;5045170;28;20049;-71
2023/10/18 00:53:40;;;;;;;0.20;0.20;;;6.20;99.90;;;;;;5046478;28;20055;-71
2023/10/18 00:56:06;;;;;;;0.20;0.20;;;6.20;99.90;;;;;;5042289;28;20049;-71
2023/10/18 00:58:39;;;;;;;0.20;0.20;;;6.20;99.90;;;;;;5036056;28;20052;-71
2023/10/18 01:01:11;;;;;;;0.20;0.20;;;6.20;99.90;;;;;;5036667;28;20492;-71
2023/10/18 01:03:45;;;;;;;0.20;0.20;;;6.10;99.90;;;;;;5039959;28;20115;-71
2023/10/18 01:06:16;;;;;;;0.10;0.10;;;6.20;99.90;;;;;;5043237;28;20416;-71
2023/10/18 01:08:42;;;;;;;;;;;6.10;99.90;;;;;;5044896;28;20069;-71
2023/10/18 01:11:10;;;;;;;0.10;0.10;;;6.10;99.90;;;;;;5038558;28;19921;-71
2023/10/18 01:13:40;;;;;;;0.10;0.10;;;6.20;99.90;;;;;;5044184;28;20045;-71
2023/10/18 01:16:13;;;;;;;0.20;0.20;;;6.10;99.90;;;;;;5040652;28;20041;-71
2023/10/18 01:18:42;;;;;;;0.20;0.20;;;6.10;99.90;;;;;;5045830;28;20049;-71
2023/10/18 01:21:16;;;;;;;0.10;0.10;;;6.10;99.90;;;;;;5047632;28;20043;-71
2023/10/18 01:23:54;;;;;;;0.20;0.20;;;6.00;99.90;;;;;;5034647;28;20093;-71
2023/10/18 01:26:22;;;;;;;0.20;0.20;;;6.00;99.90;;;;;;5039850;28;20064;-71
2023/10/18 01:28:48;;;;;;;0.20;0.20;;;6.00;99.90;;;;;;5044121;28;20061;-71
2023/10/18 01:31:15;;;;;;;0.10;0.10;;;6.00;99.90;;;;;;5041826;28;20061;-71
2023/10/18 01:33:46;;;;;;;0.20;0.20;;;6.00;99.90;;;;;;5039296;28;20398;-71
2023/10/18 01:36:15;;;;;;;0.20;0.20;;;6.00;99.90;;;;;;5044073;28;20045;-71
2023/10/18 01:38:44;;;;;;;0.20;0.20;;;6.10;99.90;;;;;;5040776;28;20049;-71
2023/10/18 01:41:25;;;;;;;0.20;0.20;;;6.00;99.90;;;;;;5033431;28;20049;-71
2023/10/18 01:43:51;;;;;;;0.20;0.20;;;5.90;99.90;;;;;;5034299;28;20052;-71
2023/10/18 01:46:17;;;;;;;0.20;0.20;;;5.90;99.90;;;;;;5042812;28;20053;-72
2023/10/18 01:48:48;;;;;;;0.10;0.10;;;5.90;99.90;;;;;;5034359;28;20036;-71
2023/10/18 01:51:16;;;;;;;0.20;0.20;;;5.90;99.90;;;;;;5042685;28;20060;-71
2023/10/18 01:53:43;;;;;;;0.20;0.20;;;5.90;99.90;;;;;;5044950;28;20799;-72
2023/10/18 01:56:10;;;;;;;0.20;0.20;;;5.90;99.90;;;;;;5029168;28;20452;-71
2023/10/18 01:58:35;;;;;;;0.13;0.13;;;5.90;99.90;;;;;;5030534;28;20120;-71
2023/10/18 02:01:08;;;;;;;0.10;0.10;;;5.90;99.90;;;;;;5044088;28;20140;-72
2023/10/18 02:03:39;;;;;;;0.20;0.20;;;5.90;99.90;;;;;;5040927;28;20057;-71
2023/10/18 02:06:09;;;;;;;0.20;0.20;;;5.90;99.90;;;;;;5029238;28;20049;-71
2023/10/18 02:08:35;;;;;;;0.20;0.20;;;5.90;99.90;;;;;;5041765;28;20045;-71
2023/10/18 02:11:11;;;;;;;0.20;0.20;;;5.90;99.90;;;;;;5043044;28;20051;-71
2023/10/18 02:13:37;;;;;;;0.10;0.10;;;5.90;99.90;;;;;;5042730;28;20049;-71
2023/10/18 02:16:06;;;;;;;0.20;0.20;;;5.90;99.90;;;;;;5046890;28;20041;-71
2023/10/18 02:18:35;;;;;;;0.15;0.15;;;5.90;99.90;;;;;;5042358;28;20049;-71
2023/10/18 02:21:02;;;;;;;0.20;0.20;;;5.90;99.90;;;;;;5033155;28;20596;-70
2023/10/18 02:23:37;;;;;;;0.10;0.10;;;5.90;99.90;;;;;;5047384;28;20057;-70
2023/10/18 02:26:22;;;;;;;0.20;0.20;;;5.90;99.90;;;;;;5043368;28;20060;-71
2023/10/18 02:28:48;;;;;;;0.20;0.20;;;5.90;99.90;;;;;;5042686;28;20048;-71
2023/10/18 02:31:15;;;;;;;0.20;0.20;;;5.80;99.90;;;;;;5041753;28;20057;-71
2023/10/18 02:33:43;;;;;;;0.20;0.20;;;5.80;99.90;;;;;;5043361;28;20062;-71
2023/10/18 02:36:11;;;;;;;0.20;0.20;;;5.80;99.90;;;;;;5036036;28;20055;-70
2023/10/18 02:38:38;;;;;;;0.20;0.20;;;5.80;99.90;;;;;;5034956;28;20186;-72
2023/10/18 02:41:14;;;;;;;0.20;0.20;;;5.80;99.90;;;;;;5029530;28;20053;-71
2023/10/18 02:43:45;;;;;;;0.10;0.10;;;5.80;99.90;;;;;;5036336;28;20057;-71
2023/10/18 02:46:13;;;;;;;0.20;0.20;;;5.80;99.90;;;;;;5045344;28;20091;-71
2023/10/18 02:48:41;;;;;;;0.20;0.20;;;5.80;99.90;;;;;;5044336;28;20045;-70
2023/10/18 02:51:06;;;;;;;0.20;0.20;;;5.80;99.90;;;;;;5039499;28;20074;-71
2023/10/18 02:53:40;;;;;;;0.20;0.20;;;5.70;99.90;;;;;;5041700;28;20148;-71
2023/10/18 02:56:06;;;;;;;0.20;0.20;;;5.70;99.90;;;;;;5039687;28;20052;-71
2023/10/18 02:58:33;;;;;;;0.20;0.20;;;5.70;99.90;;;;;;5043844;28;20532;-71
2023/10/18 03:01:05;;;;;;;0.20;0.20;;;5.70;99.90;;;;;;5044450;28;20464;-71
2023/10/18 03:03:34;;;;;;;0.20;0.20;;;5.70;99.90;;;;;;5032105;28;20053;-70
2023/10/18 03:06:13;;;;;;;0.20;0.20;;;5.70;99.90;;;;;;5034133;28;20412;-70
2023/10/18 03:08:47;;;;;;;0.20;0.20;;;5.60;99.90;;;;;;5043239;28;20039;-70
2023/10/18 03:11:12;;;;;;;0.20;0.20;;;5.60;99.90;;;;;;5042821;28;20984;-70
2023/10/18 03:13:38;;;;;;;0.10;0.10;;;5.60;99.90;;;;;;5034896;28;20120;-71
2023/10/18 03:16:05;;;;;;;0.20;0.20;;;5.60;99.90;;;;;;5047756;28;20400;-70
2023/10/18 03:18:34;;;;;;;0.20;0.20;;;5.60;99.90;;;;;;5031723;28;20067;-70
2023/10/18 03:21:08;;;;;;;0.10;0.10;;;5.60;99.90;;;;;;5047563;28;22015;-70
2023/10/18 03:23:44;;;;;;;0.20;0.20;;;5.60;99.90;;;;;;5037322;28;20162;-70
2023/10/18 03:26:13;;;;;;;0.20;0.20;;;5.50;99.90;;;;;;5049486;28;20110;-70
2023/10/18 03:28:41;;;;;;;0.20;0.20;;;5.60;99.90;;;;;;5050757;28;20378;-70
2023/10/18 03:33:52;;;;;;;0.28;0.28;;;5.50;99.90;;;;;;5049692;28;20059;-71
2023/10/18 03:36:20;;;;;;;0.20;0.20;;;5.90;99.90;;;;;;5047742;28;20044;-71
2023/10/18 03:38:53;;;;;;;0.20;0.20;;;5.50;99.90;;;;;;5046367;28;20045;-70
2023/10/18 03:41:22;;;;;;;0.20;0.20;;;5.50;99.90;;;;;;5031119;28;20045;-71
2023/10/18 03:43:49;;;;;;;0.13;0.13;;;5.50;99.90;;;;;;5037680;28;20048;-70
2023/10/18 03:46:19;;;;;;;0.10;0.10;;;5.50;99.90;;;;;;5048710;28;20382;-71
2023/10/18 03:48:54;;;;;;;0.10;0.10;;;5.40;99.90;;;;;;5052169;28;20270;-71
2023/10/18 03:51:23;;;;;;;0.20;0.20;;;5.40;99.90;;;;;;5048337;28;20041;-70
2023/10/18 03:53:53;;;;;;;0.20;0.20;;;5.40;99.90;;;;;;5042430;28;20041;-70
2023/10/18 03:56:21;;;;;;;0.13;0.13;;;5.40;99.90;;;;;;5041273;28;20049;-70
2023/10/18 03:59:00;;;;;;;0.20;0.20;;;5.40;99.90;;;;;;5047705;28;20049;-70
2023/10/18 04:01:39;;;;;;;0.20;0.20;;;5.60;99.90;;;;;;5035492;28;20053;-70
2023/10/18 04:04:06;;;;;;;0.10;0.10;;;5.40;99.90;;;;;;5046855;28;20250;-71
2023/10/18 04:06:35;;;;;;;0.20;0.20;;;5.40;99.90;;;;;;5041294;28;20140;-70
2023/10/18 04:09:13;;;;;;;0.20;0.20;;;5.40;99.90;;;;;;5046113;28;20056;-71
2023/10/18 04:11:39;;;;;;;0.20;0.20;;;5.40;99.90;;;;;;5045140;28;20045;-70
2023/10/18 04:14:05;;;;;;;0.20;0.20;;;5.40;99.90;;;;;;5035267;28;20521;-71
2023/10/18 04:16:30;;;;;;;0.20;0.20;;;5.40;99.90;;;;;;5046967;28;20262;-70
2023/10/18 04:18:58;;;;;;;0.20;0.20;;;5.40;99.90;;;;;;5049321;28;20037;-71
2023/10/18 04:21:27;;;;;;;0.20;0.20;;;5.40;99.90;;;;;;5045224;28;20400;-71
2023/10/18 04:23:56;;;;;;;0.20;0.20;;;5.40;99.90;;;;;;5043302;28;20141;-71
2023/10/18 04:26:25;;;;;;;0.20;0.20;;;5.40;99.90;;;;;;5045123;28;20061;-71
2023/10/18 04:29:01;;;;;;;0.20;0.20;;;5.40;99.90;;;;;;5044925;28;20063;-70
2023/10/18 04:31:27;;;;;;;0.20;0.20;;;5.40;99.90;;;;;;5032968;28;20061;-70
2023/10/18 04:33:54;;;;;;;0.20;0.20;;;5.40;99.90;;;;;;5041357;28;20041;-70
2023/10/18 04:36:20;;;;;;;0.10;0.10;;;5.40;99.90;;;;;;5038075;28;20040;-71
2023/10/18 04:38:47;;;;;;;0.20;0.20;;;5.40;99.90;;;;;;5043177;28;20258;-71
2023/10/18 04:41:23;;;;;;;0.20;0.20;;;5.40;99.90;;;;;;5045703;28;20052;-70
2023/10/18 04:44:06;;;;;;;0.20;0.20;;;5.40;99.90;;;;;;5034082;28;20564;-71
2023/10/18 04:46:35;;;;;;;0.20;0.20;;;5.50;99.90;;;;;;5044695;28;20049;-70
2023/10/18 04:49:16;;;;;;;0.20;0.20;;;5.30;99.90;;;;;;5038001;28;20041;-70
2023/10/18 04:54:11;;;;;;;0.10;0.10;;;5.30;99.90;;;;;;5046947;28;20058;-70
2023/10/18 04:56:38;;;;;;;0.17;0.17;;;5.30;99.90;;;;;;5046476;28;20045;-70
2023/10/18 05:02:05;;;;;;;0.10;0.10;;;5.30;99.90;;;;;;5039945;28;20049;-71
2023/10/18 05:04:34;;;;;;;0.20;0.20;;;5.30;99.90;;;;;;5045498;28;20102;-71
2023/10/18 05:07:14;;;;;;;0.20;0.20;;;5.30;99.90;;;;;;5050423;28;20102;-70
2023/10/18 05:12:28;;;;;;;0.20;0.20;;;5.30;99.90;;;;;;5042146;28;20178;-70
2023/10/18 05:15:06;;;;;;;0.20;0.20;;;5.30;99.90;;;;;;5030776;28;20042;-70
2023/10/18 05:20:07;;;;;;;0.20;0.20;;;5.30;99.90;;;;;;5034526;28;20046;-71
2023/10/18 05:22:41;;;;;;;0.20;0.20;;;5.30;99.90;;;;;;5032832;28;20053;-70
2023/10/18 05:27:59;;;;;;;0.20;0.20;;;5.30;99.90;;;;;;5026307;28;20199;-71
2023/10/18 05:33:30;;;;;;;0.20;0.20;;;5.30;99.90;;;;;;5026523;28;20045;-70
2023/10/18 05:36:03;;;;;;;0.20;0.20;;;5.30;99.90;;;;;;5013054;28;20046;-70
2023/10/18 05:43:47;;;;;;;0.20;0.20;;;5.20;99.90;;;;;;5044641;28;20059;-70
2023/10/18 05:46:12;;;;;;;0.10;0.10;;;5.20;99.90;;;;;;5028555;28;20459;-71
2023/10/18 05:48:41;;;;;;;0.20;0.20;;;5.50;99.90;;;;;;5029422;28;20055;-71
2023/10/18 05:53:51;;;;;;;0.20;0.20;;;5.20;99.90;;;;;;5026959;28;20552;-71
2023/10/18 05:56:24;;;;;;;0.20;0.20;;;5.20;99.90;;;;;;5024770;28;20076;-70
2023/10/18 05:59:16;;;;;;;0.20;0.20;;;5.20;99.90;;;;;;5024337;28;20045;-70
2023/10/18 06:01:38;;;;;;;0.20;0.20;;;5.20;99.90;;;;;;5024769;28;20056;-70
2023/10/18 06:04:04;;;;;;;0.20;0.20;;;5.20;99.90;;;;;;5033675;28;20040;-71
2023/10/18 06:06:30;;;;;;;0.20;0.20;;;5.20;99.90;;;;;;5030262;28;20048;-70
2023/10/18 06:08:57;;;;;;;0.20;0.20;;;5.20;99.90;;;;;;5025279;28;20437;-70
2023/10/18 06:11:23;;;;;;;0.17;0.17;;;5.70;99.90;;;;;;5011546;28;20048;-70
2023/10/18 06:13:49;;;;;;;0.20;0.20;;;5.20;99.90;;;;;;5029277;28;20041;-71
2023/10/18 06:16:20;;;;;;;0.20;0.20;;;5.20;99.90;;;;;;5029979;28;20075;-71
2023/10/18 06:18:48;;;;;;;0.10;0.10;;;5.20;99.90;;;;;;5026980;28;20494;-71
2023/10/18 06:21:18;;;;;;;0.17;0.17;;;5.20;99.90;;;;;;5021479;28;20054;-70
2023/10/18 06:23:57;;;;;;;0.20;0.20;;;5.20;99.90;;;;;;5019858;28;20041;-70
2023/10/18 06:26:30;;;;;;;0.15;0.15;;;5.40;99.90;;;;;;5028434;28;20120;-71
2023/10/18 06:29:08;;;;;;;0.15;0.15;;;5.20;99.90;;;;;;5041080;28;20068;-70
2023/10/18 06:31:40;;;;;;;0.20;0.20;;;5.20;99.90;;;;;;5035125;28;20127;-70
2023/10/18 06:34:10;;;;;;;;;;;5.40;99.90;;;;;;5043358;28;20083;-70
2023/10/18 06:36:38;;;;;;;0.20;0.20;;;5.20;99.90;;;;;;5062388;28;19920;-71
2023/10/18 06:39:05;;;;;;;0.20;0.20;;;5.20;99.90;;;;;;5042891;28;20053;-71
2023/10/18 06:41:31;;;;;;;0.20;0.20;;;5.20;99.90;;;;;;5039537;28;20090;-71
2023/10/18 06:43:59;;;;;;;0.20;0.20;;;5.20;99.90;;;;;;5054829;28;20473;-72
2023/10/18 06:46:38;;;;;;;0.20;0.20;;;5.20;99.90;;;;;;5043415;28;20504;-70
2023/10/18 06:49:10;;;;;;;0.20;0.20;;;5.30;99.90;;;;;;5062868;28;20384;-71
2023/10/18 06:51:40;;;;;;;0.20;0.20;;;5.30;99.90;;;;;;5046947;28;20132;-71
2023/10/18 06:54:13;;;;;;;0.20;0.20;;;5.30;99.90;;;;;;5046002;28;20364;-71
2023/10/18 06:56:39;;;;;;;0.20;0.20;;;5.30;99.90;;;;;;5053352;28;20644;-71
2023/10/18 06:59:09;;;;;;;0.20;0.20;;;5.30;99.90;;;;;;5047211;28;20246;-72
2023/10/18 07:01:54;;;;;;;0.20;0.20;;;5.30;99.90;;;;;;5053889;28;20496;-71
2023/10/18 07:04:27;;;;;;;0.10;0.10;;;5.40;99.90;;;;;;5033239;28;20045;-71
2023/10/18 07:06:53;;;;;;;0.20;0.20;;;5.40;99.90;;;;;;5036125;28;20142;-70
2023/10/18 07:09:24;;;;;;;0.20;0.20;;;5.40;99.90;;;;;;5037514;28;20086;-71
2023/10/18 07:11:57;;;;;;;0.20;0.20;;;5.40;99.90;;;;;;5049131;28;20049;-70
2023/10/18 07:14:24;;;;;;;0.10;0.10;;;5.50;99.90;;;;;;5035001;28;20041;-71
2023/10/18 07:16:54;;;;;;;0.20;0.20;;;4.40;99.90;;;;;;5042221;28;20407;-70
2023/10/18 07:19:27;;;;;;;0.20;0.20;;;5.50;99.90;;;;;;5051027;28;20392;-70
2023/10/18 07:21:57;;;;;;;0.10;0.10;;;5.60;99.90;;;;;;5035472;28;20489;-71
2023/10/18 07:24:32;;;;;;;0.20;0.20;;;5.60;99.90;;;;;;5043239;28;20075;-71
2023/10/18 07:27:20;;;;;;;0.10;0.10;;;5.60;99.90;;;;;;5054576;28;20047;-71
2023/10/18 07:29:49;;;;;;;0.20;0.20;;;5.70;99.90;;;;;;5054809;28;20400;-70
2023/10/18 07:32:20;;;;;;;0.10;0.10;;;5.70;99.90;;;;;;5052758;28;20144;-70
2023/10/18 07:34:48;;;;;;;0.10;0.10;;;5.80;99.90;;;;;;5041412;28;20381;-70
2023/10/18 07:37:17;;;;;;;0.40;0.32;;;5.80;99.90;;;;;;5034075;28;20124;-70
2023/10/18 07:39:56;;;;;;;0.20;0.20;;;5.90;99.90;;;;;;5047307;28;20133;-70
2023/10/18 07:42:22;;;;;;;0.20;0.20;;;5.90;99.90;;;;;;5066254;28;20442;-70
2023/10/18 07:44:55;;;;;;;0.20;0.20;;;5.90;99.90;;;;;;5034173;28;20049;-70
2023/10/18 07:47:25;;;;;;;0.20;0.20;;;6.00;99.90;;;;;;5046390;28;20056;-69
2023/10/18 07:49:51;;;;;;;0.20;0.20;;;6.00;99.90;;;;;;5054684;28;20041;-70
2023/10/18 07:52:17;;;;;;;0.20;0.20;;;6.10;99.90;;;;;;5050481;28;20049;-70
2023/10/18 07:54:42;;;;;;;0.20;0.20;;;6.10;99.90;;;;;;5071842;28;20036;-70
2023/10/18 07:57:15;;;;;;;0.10;0.10;;;6.20;99.90;;;;;;5070560;28;20052;-70
2023/10/18 07:59:47;;;;;;;0.20;0.20;;;6.20;99.90;;;;;;5051136;28;20403;-70
2023/10/18 08:02:19;;;;;;;0.10;0.10;;;5.90;99.90;;;;;;5048080;28;20049;-70
2023/10/18 08:04:48;;;;;;;0.20;0.20;;;6.30;99.90;;;;;;5034092;28;20547;-70
2023/10/18 08:07:20;;;;;;;0.20;0.20;;;6.30;99.90;;;;;;5043649;28;20044;-70
2023/10/18 08:09:51;;;;;;;0.20;0.20;;;6.40;99.90;;;;;;5040652;28;20273;-70
2023/10/18 08:12:30;;;;;;;0.20;0.20;;;6.50;99.90;;;;;;5037589;28;20254;-70
2023/10/18 08:14:57;;;;;;;0.10;0.10;;;6.50;99.90;;;;;;5051962;28;20052;-71
2023/10/18 08:17:29;;;;;;;0.10;0.10;;;6.60;99.90;;;;;;5052727;28;20048;-70
2023/10/18 08:22:46;;;;;;;0.20;0.20;;;6.70;99.90;;;;;;5044698;28;20399;-70
2023/10/18 08:25:21;;;;;;;0.20;0.20;;;6.80;99.90;;;;;;5030450;28;20064;-70
2023/10/18 08:27:51;;;;;;;0.10;0.10;;;6.90;99.90;;;;;;5043726;28;20044;-70
2023/10/18 08:33:03;;;;;;;0.10;0.10;;;7.00;99.90;;;;;;5047307;28;20053;-70
2023/10/18 08:35:29;;;;;;;0.17;0.17;;;7.10;99.90;;;;;;5030317;28;20048;-70
2023/10/18 08:37:55;;;;;;;0.20;0.20;;;7.10;99.90;;;;;;5030647;28;20483;-70
2023/10/18 08:40:36;;;;;;;0.20;0.20;;;7.20;99.90;;;;;;5046719;28;20049;-70
2023/10/18 08:43:12;;;;;;;;;;;7.20;99.90;;;;;;5043843;28;20045;-71
2023/10/18 08:45:45;;;;;;;0.10;0.10;;;7.30;99.90;;;;;;5034318;28;19968;-70
2023/10/18 08:48:16;;;;;;;0.20;0.20;;;7.40;99.90;;;;;;5038677;28;20060;-70
2023/10/18 08:50:42;;;;;;;0.20;0.20;;;7.40;99.90;;;;;;5033021;28;20057;-70
2023/10/18 08:53:10;;;;;;;0.17;0.17;;;7.60;99.90;;;;;;5029269;28;20124;-70
2023/10/18 08:55:45;;;;;;;0.10;0.10;;;7.50;99.90;;;;;;5033344;28;20047;-70
2023/10/18 08:58:17;;;;;;;0.10;0.10;;;7.60;99.90;;;;;;5045564;28;20060;-70
2023/10/18 09:03:14;;;;;;;0.30;0.30;;;7.60;99.90;;;;;;5032622;28;20574;-70
2023/10/18 09:05:40;;;;;;;0.20;0.20;;;7.70;99.90;;;;;;5036948;28;20376;-70
2023/10/18 09:08:14;;;;;;;0.20;0.20;;;8.10;99.90;;;;;;5050202;28;20041;-69
2023/10/18 09:10:47;;;;;;;0.20;0.20;;;7.80;99.90;;;;;;5047819;28;20095;-70
2023/10/18 09:18:16;;;;;;;0.10;0.10;;;7.90;99.90;;;;;;5049803;28;20099;-70
2023/10/18 09:20:42;;;;;;;0.10;0.10;;;8.00;99.90;;;;;;5042818;28;20053;-70
2023/10/18 09:23:14;;;;;;;0.10;0.10;;;8.10;99.90;;;;;;5040909;28;20118;-69
2023/10/18 09:25:50;;;;;;;0.20;0.20;;;8.10;99.90;;;;;;5046782;28;20122;-70
2023/10/18 09:28:25;;;;;;;0.20;0.20;;;8.20;99.90;;;;;;5033543;28;20053;-70
2023/10/18 09:31:00;;;;;;;0.20;0.20;;;8.20;99.90;;;;;;5028558;28;20382;-70
2023/10/18 09:33:31;;;;;;;0.10;0.10;;;8.30;99.90;;;;;;5040820;28;20136;-70
2023/10/18 09:36:01;;;;;;;0.10;0.10;;;8.50;99.90;;;;;;5044063;28;20044;-70
2023/10/18 09:38:41;;;;;;;0.20;0.20;;;8.40;99.90;;;;;;5032848;28;20099;-70
2023/10/18 09:41:07;;;;;;;0.10;0.10;;;8.40;99.90;;;;;;5026850;28;20103;-70
2023/10/18 09:43:34;;;;;;;0.20;0.20;;;8.50;99.90;;;;;;5029397;28;20080;-70
2023/10/18 09:46:00;;;;;;;0.10;0.10;;;8.50;99.90;;;;;;5029954;28;20585;-70
2023/10/18 09:48:27;;;;;;;0.10;0.10;;;8.60;99.90;;;;;;5036220;28;20152;-70
2023/10/18 09:50:54;;;;;;;0.30;0.30;;;8.60;99.90;;;;;;5048527;28;20530;-69
2023/10/18 09:53:25;;;;;;;0.10;0.10;;;8.70;99.90;;;;;;5048065;28;20132;-70
2023/10/18 09:55:53;;;;;;;0.20;0.20;;;8.80;99.90;;;;;;5033757;28;20563;-69
2023/10/18 09:58:22;;;;;;;0.10;0.10;;;8.80;99.90;;;;;;5035081;28;20056;-70
2023/10/18 10:00:50;;;;;;;0.20;0.20;;;8.80;99.90;;;;;;5039506;28;20123;-70
2023/10/18 10:03:35;;;;;;;0.10;0.10;;;8.90;99.90;;;;;;5033901;28;20485;-70
2023/10/18 10:06:01;;;;;;;0.20;0.20;;;9.00;99.90;;;;;;5036204;28;20044;-70
2023/10/18 10:08:31;;;;;;;0.60;0.40;;;9.10;99.90;;;;;;5035261;28;20044;-70
2023/10/18 10:11:12;;;;;;;0.10;0.10;;;9.20;99.90;;;;;;5039099;28;20095;-69
2023/10/18 10:13:38;;;;;;;0.10;0.10;;;9.30;99.90;;;;;;5039075;28;20703;-70
2023/10/18 10:16:08;;;;;;;0.20;0.20;;;9.30;99.90;;;;;;5037486;28;20139;-70
2023/10/18 10:18:37;;;;;;;0.20;0.20;;;9.30;99.90;;;;;;5033970;28;20045;-70
2023/10/18 10:21:08;;;;;;;0.20;0.20;;;9.40;99.90;;;;;;5047299;28;20076;-70
2023/10/18 10:23:35;;;;;;;0.15;0.15;;;9.50;99.90;;;;;;5040585;28;20140;-71
2023/10/18 10:26:22;;;;;;;0.20;0.20;;;9.50;99.90;;;;;;5052050;28;20121;-70
2023/10/18 10:32:06;;;;;;;0.20;0.20;;;9.60;99.90;;;;;;5041624;28;20552;-70
2023/10/18 10:34:41;;;;;;;2.80;0.35;;;9.70;99.90;;;;;;5041798;28;20383;-71
2023/10/18 10:37:12;;;;;;;0.10;0.10;;;10.00;99.90;;;;;;5044625;28;20041;-70
2023/10/18 10:39:45;;;;;;;0.20;0.20;;;9.90;99.90;;;;;;5037216;28;20432;-70
2023/10/18 10:42:46;;;;;;;0.20;0.20;;;9.90;99.90;;;;;;5038017;28;20045;-70
2023/10/18 10:45:35;;;;;;;0.20;0.20;;;9.90;99.90;;;;;;5047461;28;20604;-70
2023/10/18 10:51:11;;;;;;;0.10;0.10;;;10.20;99.90;;;;;;5051324;28;20050;-72
2023/10/18 10:54:01;;;;;;;0.20;0.20;;;10.30;99.90;;;;;;5045869;28;20115;-70
2023/10/18 10:56:33;;;;;;;0.20;0.20;;;10.20;99.90;;;;;;5061059;28;20106;-70
2023/10/18 11:01:39;;;;;;;0.20;0.20;;;10.30;99.90;;;;;;5049902;28;20102;-70
2023/10/18 11:04:49;;;;;;;0.10;0.10;;;10.50;99.90;;;;;;5050258;28;20049;-70
2023/10/18 11:07:21;;;;;;;0.10;0.10;;;10.50;99.90;;;;;;5039312;28;20052;-70
2023/10/18 11:09:48;;;;;;;0.20;0.20;;;10.60;99.90;;;;;;5034804;28;20070;-70
2023/10/18 11:12:14;;;;;;;0.10;0.10;;;10.60;99.90;;;;;;5040965;28;20493;-70
2023/10/18 11:14:43;;;;;;;0.20;0.20;;;10.70;99.90;;;;;;5043564;28;20178;-70
2023/10/18 11:19:43;;;;;;;0.15;0.15;;;10.80;99.90;;;;;;5056195;28;20051;-70
2023/10/18 11:22:13;;;;;;;0.20;0.20;;;10.80;99.90;;;;;;5030076;28;20049;-70
2023/10/18 11:24:39;;;;;;;0.20;0.20;;;10.90;99.90;;;;;;5041297;28;20059;-70
2023/10/18 11:27:09;;;;;;;0.10;0.10;;;10.90;99.90;;;;;;5044469;28;20159;-70
2023/10/18 11:29:41;;;;;;;0.10;0.10;;;11.00;99.90;;;;;;5048664;28;20412;-70
2023/10/18 11:32:15;;;;;;;0.20;0.20;;;10.90;99.90;;;;;;5047684;28;20048;-71
2023/10/18 11:34:43;;;;;;;0.10;0.10;;;11.20;99.90;;;;;;5048073;28;20089;-70
2023/10/18 11:37:09;;;;;;;0.20;0.20;;;11.00;99.90;;;;;;5044796;28;20071;-70
2023/10/18 11:39:36;;;;;;;0.10;0.10;;;11.10;99.90;;;;;;5038340;28;20044;-70
2023/10/18 11:42:03;;;;;;;0.10;0.10;;;11.10;99.90;;;;;;5042679;28;20079;-70
2023/10/18 11:44:33;;;;;;;0.10;0.10;;;11.20;99.90;;;;;;5036087;28;20041;-70
2023/10/18 11:47:18;;;;;;;0.20;0.20;;;11.20;99.90;;;;;;5049319;28;20037;-70
2023/10/18 11:49:45;;;;;;;0.10;0.10;;;11.20;99.90;;;;;;5044260;28;20049;-70
2023/10/18 11:52:22;;;;;;;0.10;0.10;;;11.30;99.90;;;;;;5046110;28;20419;-70
2023/10/18 11:54:52;;;;;;;0.10;0.10;;;11.20;99.90;;;;;;5047485;28;20040;-70
2023/10/18 11:57:39;;;;;;;0.20;0.20;;;11.30;99.90;;;;;;5051703;28;20056;-70
2023/10/18 12:02:50;;;;;;;0.20;0.20;;;11.30;99.90;;;;;;5046283;28;20053;-70
2023/10/18 12:05:17;;;;;;;0.10;0.10;;;11.50;99.90;;;;;;5044069;28;20040;-71
2023/10/18 12:07:46;;;;;;;0.10;0.10;;;11.40;99.90;;;;;;5064186;28;20113;-70
2023/10/18 12:10:17;;;;;;;0.10;0.10;;;11.40;99.90;;;;;;5050864;28;20045;-70
2023/10/18 12:12:44;;;;;;;0.10;0.10;;;11.40;99.90;;;;;;5047843;28;20036;-70
2023/10/18 12:15:10;;;;;;;0.10;0.10;;;11.40;99.90;;;;;;5051065;28;20048;-71
2023/10/18 12:17:35;;;;;;;0.30;0.30;;;11.50;99.90;;;;;;5049155;28;20033;-70
2023/10/18 12:20:03;;;;;;;0.10;0.10;;;11.50;99.90;;;;;;5053017;28;20048;-70
2023/10/18 12:22:29;;;;;;;0.10;0.10;;;11.60;99.90;;;;;;5070391;28;20048;-71
2023/10/18 12:24:54;;;;;;;0.20;0.20;;;11.50;99.90;;;;;;5049840;28;20048;-70
2023/10/18 12:27:35;;;;;;;0.20;0.20;;;11.60;99.90;;;;;;5050800;28;20090;-71
2023/10/18 12:30:10;;;;;;;0.20;0.20;;;11.80;99.90;;;;;;5052602;28;20222;-70
2023/10/18 12:32:42;;;;;;;0.20;0.20;;;12.00;99.90;;;;;;5049887;28;20045;-70
2023/10/18 12:35:15;;;;;;;0.20;0.20;;;12.30;99.90;;;;;;5049617;28;20048;-70
2023/10/18 12:37:41;;;;;;;0.20;0.20;;;12.60;99.90;;;;;;5048463;28;20084;-70
2023/10/18 12:41:18;;;;;;;0.10;0.10;;;12.90;99.90;;;;;;5039034;28;20480;-70
2023/10/18 12:43:06;;;;;;;0.10;0.10;;;13.30;99.90;;;;;;5054634;28;20133;-70
2023/10/18 12:45:42;;;;;;;0.10;0.10;;;14.10;99.90;;;;;;5046609;28;20045;-70
2023/10/18 12:48:14;;;;;;;0.10;0.10;;;14.20;99.90;;;;;;5052333;28;20076;-70
2023/10/18 12:50:45;;;;;;;;;;;14.70;99.90;;;;;;5047895;28;20471;-70
2023/10/18 12:55:57;;;;;;;0.20;0.20;;;15.40;99.90;;;;;;5050255;28;20056;-70
2023/10/18 12:58:30;;;;;;;0.20;0.20;;;15.20;99.90;;;;;;5048360;28;20534;-70
2023/10/18 13:01:05;;;;;;;0.17;0.17;;;;;;;;;;5043176;28;20041;-70
2023/10/18 13:03:38;;;;;;;0.10;0.10;;;15.90;99.90;;;;;;5052334;28;20132;-70
2023/10/18 13:06:27;;;;;;;0.10;0.10;;;15.90;99.90;;;;;;5053060;28;20040;-70
2023/10/18 13:08:55;;;;;;;0.10;0.10;;;16.00;99.90;;;;;;5054581;28;20053;-70
2023/10/18 13:14:06;;;;;;;0.20;0.20;;;16.10;99.90;;;;;;5070383;28;20078;-70
2023/10/18 13:16:33;;;;;;;0.20;0.20;;;16.10;99.90;;;;;;5070057;28;20052;-70
2023/10/18 13:18:58;;;;;;;0.20;0.20;;;16.10;99.90;;;;;;5050847;28;20514;-70
2023/10/18 13:21:27;;;;;;;0.20;0.20;;;16.10;99.90;;;;;;5046545;28;20037;-71
2023/10/18 13:23:59;;;;;;;0.20;0.20;;;15.90;99.90;;;;;;5046279;28;20048;-70
2023/10/18 13:26:31;;;;;;;0.20;0.20;;;15.80;99.90;;;;;;5047969;28;20064;-70
2023/10/18 13:29:00;;;;;;;0.20;0.20;;;15.40;99.90;;;;;;5037650;28;20083;-70
2023/10/18 13:31:31;;;;;;;0.10;0.10;;;15.10;99.90;;;;;;5049376;28;20507;-70
2023/10/18 13:33:59;;;;;;;0.20;0.20;;;14.70;99.90;;;;;;5035329;28;20045;-70
2023/10/18 13:36:25;;;;;;;0.20;0.20;;;14.50;99.90;;;;;;5048583;28;20450;-71
2023/10/18 13:38:51;;;;;;;0.20;0.20;;;14.30;99.90;;;;;;5046321;28;20048;-70
2023/10/18 13:41:17;;;;;;;0.10;0.10;;;14.00;99.90;;;;;;5051112;28;20032;-70
2023/10/18 13:43:44;;;;;;;0.13;0.13;;;13.80;99.90;;;;;;5059450;28;20327;-70
2023/10/18 13:46:18;;;;;;;0.10;0.10;;;13.60;99.90;;;;;;5067766;28;20052;-70
2023/10/18 13:48:46;;;;;;;0.10;0.10;;;13.50;99.90;;;;;;5043257;28;20040;-69
2023/10/18 13:51:13;;;;;;;0.10;0.10;;;13.30;99.90;;;;;;5068713;28;20182;-70
2023/10/18 13:53:41;;;;;;;0.10;0.10;;;13.40;99.90;;;;;;5055449;28;20055;-69
2023/10/18 13:56:10;;;;;;;0.10;0.10;;;13.20;99.90;;;;;;5047125;28;20053;-70
2023/10/18 13:58:35;;;;;;;0.10;0.10;;;13.10;99.90;;;;;;5047425;28;20071;-70
2023/10/18 14:01:05;;;;;;;0.10;0.10;;;13.10;99.90;;;;;;5041522;28;20138;-70
2023/10/18 14:03:32;;;;;;;0.10;0.10;;;13.00;99.90;;;;;;5055343;28;20115;-70
2023/10/18 14:05:59;;;;;;;0.20;0.20;;;12.90;99.90;;;;;;5050991;28;20044;-70
2023/10/18 14:08:25;;;;;;;0.17;0.17;;;12.80;99.90;;;;;;5068353;28;20048;-71
2023/10/18 14:10:54;;;;;;;0.10;0.10;;;12.70;99.90;;;;;;5035088;28;20041;-70
2023/10/18 14:13:23;;;;;;;0.20;0.20;;;12.60;99.90;;;;;;5030992;28;20052;-70